Time;durP1;ratioP1;P1;durP2;ratioP2;P2;SDS_P1;SDS_P2;PMS_P1;PMS_P2;Temp;Humidity;BMP_temperature;BMP_pressure;BME280_temperature;BME280_humidity;BME280_pressure;Samples;Min_cycle;Max_cycle;Signal;HPM_P1;HPM_P2
2022/12/11 00:01:09;;;;;;;11.23;7.40;;;;;;;;;;6277967;22;21124;-72
2022/12/11 00:03:57;;;;;;;13.20;7.70;;;;;;;;;;6276907;22;20434;-76
2022/12/11 00:06:50;;;;;;;10.10;7.67;;;;;;;;;;6278492;22;20521;-73
2022/12/11 00:09:39;;;;;;;10.07;6.90;;;;;;;;;;6287045;22;20455;-73
2022/12/11 00:12:34;;;;;;;11.00;7.93;;;;;;;;;;6275359;22;20420;-74
2022/12/11 00:15:23;;;;;;;9.80;7.20;;;;;;;;;;6285750;22;20413;-73
2022/12/11 00:18:12;;;;;;;10.67;7.90;;;;;;;;;;6277628;22;20415;-74
2022/12/11 00:21:01;;;;;;;9.03;7.30;;;;;;;;;;6279656;22;20418;-73
2022/12/11 00:23:53;;;;;;;9.57;7.30;;;;;;;;;;6277944;22;20432;-73
2022/12/11 00:26:42;;;;;;;8.70;6.27;;;;;;;;;;6278449;22;20418;-73
2022/12/11 00:29:31;;;;;;;9.67;6.83;;;;;;;;;;6278058;22;20442;-73
2022/12/11 00:32:19;;;;;;;9.30;7.17;;;;;;;;;;6276638;22;20414;-73
2022/12/11 00:35:08;;;;;;;10.20;7.80;;;;;;;;;;6272790;22;21011;-73
2022/12/11 00:38:00;;;;;;;9.70;7.30;;;;;;;;;;6277972;22;20409;-73
2022/12/11 00:40:54;;;;;;;7.97;7.10;;;;;;;;;;6278169;22;20413;-74
2022/12/11 00:43:46;;;;;;;10.13;7.63;;;;;;;;;;6279500;22;20448;-73
2022/12/11 00:46:37;;;;;;;8.63;6.97;;;;;;;;;;6277788;22;20423;-74
2022/12/11 00:49:28;;;;;;;11.00;7.87;;;;;;;;;;6288507;22;20434;-73
2022/12/11 00:52:17;;;;;;;10.17;7.80;;;;;;;;;;6288853;22;20406;-73
2022/12/11 00:55:06;;;;;;;11.03;8.00;;;;;;;;;;6278102;22;20424;-73
2022/12/11 00:57:58;;;;;;;9.03;7.20;;;;;;;;;;6281501;22;20400;-74
2022/12/11 01:00:48;;;;;;;10.40;7.17;;;;;;;;;;6276041;22;20418;-74
2022/12/11 01:03:40;;;;;;;10.17;7.20;;;;;;;;;;6281230;22;20427;-76
2022/12/11 01:06:29;;;;;;;11.97;7.40;;;;;;;;;;6278640;22;20497;-73
2022/12/11 01:12:23;;;;;;;9.70;7.70;;;;;;;;;;6277893;22;20410;-75
2022/12/11 01:15:21;;;;;;;9.93;7.27;;;;;;;;;;6273191;22;20501;-73
2022/12/11 01:18:14;;;;;;;9.47;6.70;;;;;;;;;;6276753;22;20416;-72
2022/12/11 01:21:06;;;;;;;10.83;7.87;;;;;;;;;;6287237;22;20416;-73
2022/12/11 01:23:54;;;;;;;9.70;7.97;;;;;;;;;;6287221;22;20753;-73
2022/12/11 01:26:46;;;;;;;11.67;7.93;;;;;;;;;;6277745;22;20412;-73
2022/12/11 01:29:36;;;;;;;12.33;8.67;;;;;;;;;;6277729;22;20435;-74
2022/12/11 01:32:29;;;;;;;10.90;8.30;;;;;;;;;;6276368;22;20444;-73
2022/12/11 01:35:18;;;;;;;10.87;8.30;;;;;;;;;;6279009;22;20407;-73
2022/12/11 01:38:07;;;;;;;9.63;7.27;;;;;;;;;;6275422;22;20414;-75
2022/12/11 01:40:55;;;;;;;8.20;6.43;;;;;;;;;;6279333;22;20421;-73
2022/12/11 01:44:00;;;;;;;8.23;6.40;;;;;;;;;;6286703;22;20499;-73
2022/12/11 01:46:48;;;;;;;9.67;7.40;;;;;;;;;;6286282;22;20460;-75
2022/12/11 01:49:39;;;;;;;10.47;7.93;;;;;;;;;;6300531;22;20432;-75
2022/12/11 01:52:28;;;;;;;8.77;7.30;;;;;;;;;;6302887;22;20423;-75
2022/12/11 01:55:17;;;;;;;10.10;7.23;;;;;;;;;;6294034;22;20430;-75
2022/12/11 01:58:08;;;;;;;12.73;7.57;;;;;;;;;;6300385;22;20420;-74
2022/12/11 02:00:57;;;;;;;9.53;7.60;;;;;;;;;;6295060;22;21386;-74
2022/12/11 02:03:48;;;;;;;9.37;7.10;;;;;;;;;;6298032;22;20413;-75
2022/12/11 02:06:45;;;;;;;10.23;7.40;;;;;;;;;;6301743;22;20442;-74
2022/12/11 02:09:37;;;;;;;11.90;7.30;;;;;;;;;;6295829;22;20450;-74
2022/12/11 02:12:35;;;;;;;10.13;7.73;;;;;;;;;;6298922;22;20419;-74
2022/12/11 02:15:26;;;;;;;9.97;7.80;;;;;;;;;;6309613;22;20427;-74
2022/12/11 02:18:23;;;;;;;14.07;9.10;;;;;;;;;;6301852;22;20411;-74
2022/12/11 02:21:19;;;;;;;10.40;7.30;;;;;;;;;;6303679;22;20418;-74
2022/12/11 02:24:25;;;;;;;11.67;8.30;;;;;;;;;;6301349;22;20426;-75
2022/12/11 02:27:25;;;;;;;11.97;8.17;;;;;;;;;;6302856;22;20414;-75
2022/12/11 02:30:16;;;;;;;11.23;8.47;;;;;;;;;;6300227;22;20437;-73
2022/12/11 02:33:14;;;;;;;10.87;8.03;;;;;;;;;;6302197;22;20412;-77
2022/12/11 02:36:04;;;;;;;11.93;8.80;;;;;;;;;;6303744;22;20431;-75
2022/12/11 02:38:54;;;;;;;12.40;8.63;;;;;;;;;;6299439;22;20414;-75
2022/12/11 02:41:47;;;;;;;11.07;8.40;;;;;;;;;;6297547;22;20505;-75
2022/12/11 02:44:36;;;;;;;13.00;9.23;;;;;;;;;;6296388;22;20408;-75
2022/12/11 02:47:32;;;;;;;12.30;9.67;;;;;;;;;;6300910;22;20419;-75
2022/12/11 02:50:22;;;;;;;13.87;9.30;;;;;;;;;;6299142;22;20430;-73
2022/12/11 02:53:11;;;;;;;13.57;9.20;;;;;;;;;;6300054;22;20622;-74
2022/12/11 02:56:09;;;;;;;12.50;9.57;;;;;;;;;;6301236;22;20442;-74
2022/12/11 02:59:00;;;;;;;13.87;9.90;;;;;;;;;;6301887;22;20406;-74
2022/12/11 03:01:49;;;;;;;15.53;9.33;;;;;;;;;;6297095;22;20421;-75
2022/12/11 03:04:41;;;;;;;12.10;9.13;;;;;;;;;;6303042;22;20406;-75
2022/12/11 03:07:32;;;;;;;12.20;8.70;;;;;;;;;;6300625;22;20411;-74
2022/12/11 03:10:20;;;;;;;14.57;10.03;;;;;;;;;;6298715;22;20441;-77
2022/12/11 03:13:11;;;;;;;15.03;9.90;;;;;;;;;;6312699;22;20413;-76
2022/12/11 03:16:09;;;;;;;14.60;9.70;;;;;;;;;;6299110;22;20437;-75
2022/12/11 03:19:01;;;;;;;12.27;8.80;;;;;;;;;;6302473;22;20405;-77
2022/12/11 03:21:55;;;;;;;12.77;9.13;;;;;;;;;;6300600;22;20416;-75
2022/12/11 03:24:53;;;;;;;13.23;9.10;;;;;;;;;;6302196;22;21040;-74
2022/12/11 03:27:47;;;;;;;13.90;9.33;;;;;;;;;;6301829;22;20418;-75
2022/12/11 03:30:40;;;;;;;14.17;9.53;;;;;;;;;;6302220;22;20438;-75
2022/12/11 03:33:33;;;;;;;13.60;10.17;;;;;;;;;;6300347;22;20417;-75
2022/12/11 03:36:26;;;;;;;14.00;9.90;;;;;;;;;;6302277;22;20426;-74
2022/12/11 03:39:20;;;;;;;13.47;9.33;;;;;;;;;;6299523;22;20425;-76
2022/12/11 03:42:13;;;;;;;13.13;9.33;;;;;;;;;;6311879;22;20930;-75
2022/12/11 03:45:07;;;;;;;14.03;9.30;;;;;;;;;;6296459;22;20422;-74
2022/12/11 03:47:56;;;;;;;12.73;9.93;;;;;;;;;;6301357;22;20410;-74
2022/12/11 03:50:47;;;;;;;14.70;10.40;;;;;;;;;;6301216;22;20443;-75
2022/12/11 03:53:40;;;;;;;14.33;9.30;;;;;;;;;;6304960;22;20908;-75
2022/12/11 03:56:32;;;;;;;13.57;9.43;;;;;;;;;;6297729;22;20430;-74
2022/12/11 03:59:20;;;;;;;11.17;8.80;;;;;;;;;;6302030;22;20404;-74
2022/12/11 04:02:10;;;;;;;12.30;8.83;;;;;;;;;;6299675;22;20421;-75
2022/12/11 04:04:59;;;;;;;11.73;9.00;;;;;;;;;;6310017;22;20410;-74
2022/12/11 04:07:47;;;;;;;11.40;8.93;;;;;;;;;;6297501;22;20947;-75
2022/12/11 04:10:36;;;;;;;12.57;9.63;;;;;;;;;;6298555;22;20435;-73
2022/12/11 04:13:29;;;;;;;12.77;9.83;;;;;;;;;;6308417;22;20433;-75
2022/12/11 04:16:16;;;;;;;14.73;10.67;;;;;;;;;;6295851;22;20442;-75
2022/12/11 04:25:27;;;;;;;13.23;9.80;;;;;;;;;;6297964;22;20426;-75
2022/12/11 04:28:16;;;;;;;13.83;10.30;;;;;;;;;;6297573;22;20410;-75
2022/12/11 04:31:11;;;;;;;13.53;10.17;;;;;;;;;;6299055;22;20439;-74
2022/12/11 04:34:02;;;;;;;14.27;9.90;;;;;;;;;;6299530;22;20439;-77
2022/12/11 04:36:51;;;;;;;12.90;10.00;;;;;;;;;;6297200;22;20445;-74
2022/12/11 04:39:51;;;;;;;13.33;10.23;;;;;;;;;;6298834;22;20505;-75
2022/12/11 04:42:41;;;;;;;14.47;10.70;;;;;;;;;;6292154;22;20413;-75
2022/12/11 04:45:30;;;;;;;16.07;10.43;;;;;;;;;;6300806;22;20778;-75
2022/12/11 04:48:22;;;;;;;14.53;10.90;;;;;;;;;;6298103;22;21349;-75
2022/12/11 04:51:11;;;;;;;13.67;10.53;;;;;;;;;;6304287;22;20820;-74
2022/12/11 04:54:00;;;;;;;14.00;10.60;;;;;;;;;;6294359;22;20417;-74
2022/12/11 04:56:48;;;;;;;13.13;10.67;;;;;;;;;;6299125;22;20440;-74
2022/12/11 04:59:37;;;;;;;15.50;10.97;;;;;;;;;;6302713;22;20399;-74
2022/12/11 05:02:27;;;;;;;14.90;10.20;;;;;;;;;;6298301;22;20909;-76
2022/12/11 05:05:18;;;;;;;14.47;10.47;;;;;;;;;;6300688;22;21027;-75
2022/12/11 05:08:07;;;;;;;14.87;10.87;;;;;;;;;;6298414;22;20764;-74
2022/12/11 05:10:59;;;;;;;14.80;10.90;;;;;;;;;;6297725;22;21021;-74
2022/12/11 05:13:48;;;;;;;13.27;10.00;;;;;;;;;;6311056;22;20744;-73
2022/12/11 05:16:39;;;;;;;15.33;10.13;;;;;;;;;;6311879;22;20431;-74
2022/12/11 05:19:29;;;;;;;15.30;11.33;;;;;;;;;;6298022;22;20910;-74
2022/12/11 05:22:19;;;;;;;15.27;10.80;;;;;;;;;;6300519;22;20954;-75
2022/12/11 05:25:08;;;;;;;13.97;11.07;;;;;;;;;;6302655;22;20409;-75
2022/12/11 05:28:01;;;;;;;15.10;11.33;;;;;;;;;;6304252;22;20416;-75
2022/12/11 05:30:58;;;;;;;16.13;10.90;;;;;;;;;;6297781;22;20442;-74
2022/12/11 05:33:49;;;;;;;15.50;11.27;;;;;;;;;;6298069;22;20416;-74
2022/12/11 05:36:39;;;;;;;15.60;11.07;;;;;;;;;;6310919;22;20920;-75
2022/12/11 05:39:33;;;;;;;16.47;11.20;;;;;;;;;;6301688;22;20407;-74
2022/12/11 05:42:22;;;;;;;15.00;10.63;;;;;;;;;;6297343;22;20410;-74
2022/12/11 05:45:19;;;;;;;13.23;9.77;;;;;;;;;;6301748;22;20437;-74
2022/12/11 05:48:08;;;;;;;16.20;11.37;;;;;;;;;;6299257;22;20415;-75
2022/12/11 05:50:57;;;;;;;15.90;10.23;;;;;;;;;;6311775;22;20949;-75
2022/12/11 05:53:47;;;;;;;15.57;11.10;;;;;;;;;;6300997;22;20410;-74
2022/12/11 05:56:39;;;;;;;14.37;10.90;;;;;;;;;;6297858;22;20439;-76
2022/12/11 05:59:28;;;;;;;17.47;11.83;;;;;;;;;;6300755;22;20404;-75
2022/12/11 06:02:16;;;;;;;15.23;11.00;;;;;;;;;;6297578;22;20413;-75
2022/12/11 06:05:05;;;;;;;18.53;11.40;;;;;;;;;;6302575;22;20412;-74
2022/12/11 06:07:54;;;;;;;15.00;10.70;;;;;;;;;;6297397;22;20410;-75
2022/12/11 06:10:46;;;;;;;17.40;11.37;;;;;;;;;;6295307;22;20576;-75
2022/12/11 06:13:41;;;;;;;15.53;10.93;;;;;;;;;;6311901;22;20413;-75
2022/12/11 06:16:31;;;;;;;17.20;11.00;;;;;;;;;;6312609;22;20433;-74
2022/12/11 06:19:22;;;;;;;17.23;11.40;;;;;;;;;;6299287;22;20413;-75
2022/12/11 06:22:11;;;;;;;16.47;11.37;;;;;;;;;;6294839;22;20417;-75
2022/12/11 06:25:00;;;;;;;17.87;11.67;;;;;;;;;;6297669;22;20735;-75
2022/12/11 06:27:48;;;;;;;17.20;11.27;;;;;;;;;;6303298;22;20415;-74
2022/12/11 06:30:39;;;;;;;16.93;11.20;;;;;;;;;;6296694;22;20444;-75
2022/12/11 06:33:28;;;;;;;17.57;12.27;;;;;;;;;;6294646;22;20410;-75
2022/12/11 06:36:17;;;;;;;16.30;10.87;;;;;;;;;;6299822;22;20445;-76
2022/12/11 06:39:07;;;;;;;14.00;10.30;;;;;;;;;;6299274;22;20553;-74
2022/12/11 06:41:55;;;;;;;17.93;11.23;;;;;;;;;;6304173;22;20416;-75
2022/12/11 06:44:46;;;;;;;17.17;11.70;;;;;;;;;;6307469;22;20402;-76
2022/12/11 06:47:39;;;;;;;18.57;12.33;;;;;;;;;;6312730;22;20658;-76
2022/12/11 06:50:27;;;;;;;14.70;10.53;;;;;;;;;;6303368;22;20919;-75
2022/12/11 06:53:16;;;;;;;16.70;11.10;;;;;;;;;;6302172;22;20429;-76
2022/12/11 06:56:11;;;;;;;17.00;10.77;;;;;;;;;;6302676;22;20451;-75
2022/12/11 06:58:59;;;;;;;19.50;11.90;;;;;;;;;;6294749;22;20513;-76
2022/12/11 07:01:56;;;;;;;19.10;12.90;;;;;;;;;;6312057;22;20412;-75
2022/12/11 07:04:49;;;;;;;17.63;11.70;;;;;;;;;;6300194;22;20409;-74
2022/12/11 07:07:42;;;;;;;18.77;11.93;;;;;;;;;;6296347;22;20432;-72
2022/12/11 07:10:31;;;;;;;16.17;11.10;;;;;;;;;;6306872;22;20530;-74
2022/12/11 07:13:21;;;;;;;19.40;12.10;;;;;;;;;;6311355;22;20431;-74
2022/12/11 07:16:10;;;;;;;19.53;11.83;;;;;;;;;;6302078;22;20455;-75
2022/12/11 07:18:59;;;;;;;20.00;11.80;;;;;;;;;;6304002;22;20401;-74
2022/12/11 07:21:51;;;;;;;21.73;13.77;;;;;;;;;;6315592;22;20497;-74
2022/12/11 07:24:45;;;;;;;18.10;11.70;;;;;;;;;;6294063;22;20443;-71
2022/12/11 07:27:33;;;;;;;18.10;12.03;;;;;;;;;;6294054;22;20421;-72
2022/12/11 07:30:22;;;;;;;18.53;12.27;;;;;;;;;;6295531;22;20410;-73
2022/12/11 07:33:10;;;;;;;18.97;12.47;;;;;;;;;;6300156;22;20427;-73
2022/12/11 07:36:02;;;;;;;20.03;12.57;;;;;;;;;;6292818;22;20434;-73
2022/12/11 07:38:52;;;;;;;19.87;12.00;;;;;;;;;;6292535;22;20404;-73
2022/12/11 07:41:44;;;;;;;17.80;12.33;;;;;;;;;;6300352;22;20401;-72
2022/12/11 07:44:37;;;;;;;20.63;11.90;;;;;;;;;;6312195;22;20413;-73
2022/12/11 07:50:02;;;;;;;21.10;12.90;;;;;;;;;;6312743;22;20473;-75
2022/12/11 07:52:55;;;;;;;22.07;12.77;;;;;;;;;;6307880;22;20397;-72
2022/12/11 07:55:45;;;;;;;18.97;12.50;;;;;;;;;;6304535;22;20417;-72
2022/12/11 07:58:37;;;;;;;20.73;13.23;;;;;;;;;;6311381;22;20795;-75
2022/12/11 08:01:28;;;;;;;20.30;13.63;;;;;;;;;;6313081;22;20463;-75
2022/12/11 08:04:17;;;;;;;24.53;13.67;;;;;;;;;;6308778;22;20409;-75
2022/12/11 08:07:05;;;;;;;20.00;12.40;;;;;;;;;;6305688;22;20421;-73
2022/12/11 08:09:54;;;;;;;21.23;12.93;;;;;;;;;;6300892;22;20420;-73
2022/12/11 08:12:44;;;;;;;22.37;13.90;;;;;;;;;;6307645;22;20440;-73
2022/12/11 08:15:33;;;;;;;19.53;12.57;;;;;;;;;;6306642;22;20412;-73
2022/12/11 08:18:21;;;;;;;20.07;11.97;;;;;;;;;;6308745;22;20980;-75
2022/12/11 08:21:11;;;;;;;19.97;12.37;;;;;;;;;;6308979;22;20407;-76
2022/12/11 08:24:00;;;;;;;19.87;12.40;;;;;;;;;;6303056;22;20422;-73
2022/12/11 08:26:48;;;;;;;21.23;12.97;;;;;;;;;;6309324;22;20409;-76
2022/12/11 08:29:41;;;;;;;19.30;12.73;;;;;;;;;;6305892;22;20436;-73
2022/12/11 08:32:29;;;;;;;19.57;12.10;;;;;;;;;;6310528;22;20441;-73
2022/12/11 08:35:18;;;;;;;18.67;12.50;;;;;;;;;;6310539;22;20417;-73
2022/12/11 08:38:07;;;;;;;19.20;12.80;;;;;;;;;;6306890;22;20436;-73
2022/12/11 08:40:55;;;;;;;19.60;12.60;;;;;;;;;;6307203;22;20416;-73
2022/12/11 08:43:44;;;;;;;20.67;12.70;;;;;;;;;;6309138;22;20405;-73
2022/12/11 08:46:34;;;;;;;18.57;11.33;;;;;;;;;;6311087;22;20413;-74
2022/12/11 08:49:23;;;;;;;18.27;11.90;;;;;;;;;;6310007;22;20469;-74
2022/12/11 08:52:17;;;;;;;18.80;11.93;;;;;;;;;;6318987;22;20451;-74
2022/12/11 08:55:06;;;;;;;19.87;12.33;;;;;;;;;;6303947;22;20910;-73
2022/12/11 08:57:55;;;;;;;18.93;11.67;;;;;;;;;;6309885;22;20444;-73
2022/12/11 09:00:47;;;;;;;17.47;11.63;;;;;;;;;;6317243;22;20411;-72
2022/12/11 09:03:37;;;;;;;18.03;11.40;;;;;;;;;;6312678;22;20413;-74
2022/12/11 09:06:26;;;;;;;17.87;12.00;;;;;;;;;;6312402;22;20416;-74
2022/12/11 09:09:14;;;;;;;17.70;10.93;;;;;;;;;;6307859;22;20431;-74
2022/12/11 09:12:03;;;;;;;16.47;10.60;;;;;;;;;;6310619;22;20918;-74
2022/12/11 09:14:52;;;;;;;19.67;10.57;;;;;;;;;;6330504;22;20420;-74
2022/12/11 09:17:40;;;;;;;17.37;11.50;;;;;;;;;;6329641;22;20887;-74
2022/12/11 09:20:30;;;;;;;16.77;10.80;;;;;;;;;;6311734;22;20432;-74
2022/12/11 09:23:19;;;;;;;16.83;11.67;;;;;;;;;;6309766;22;20417;-74
2022/12/11 09:26:09;;;;;;;19.00;12.40;;;;;;;;;;6313420;22;20409;-74
2022/12/11 09:28:58;;;;;;;15.70;11.47;;;;;;;;;;6320877;22;20435;-74
2022/12/11 09:31:48;;;;;;;15.53;11.23;;;;;;;;;;6311922;22;20433;-73
2022/12/11 09:34:36;;;;;;;16.83;11.10;;;;;;;;;;6311805;22;20410;-74
2022/12/11 09:37:26;;;;;;;18.20;11.87;;;;;;;;;;6312009;22;20432;-74
2022/12/11 09:40:15;;;;;;;16.30;11.03;;;;;;;;;;6310765;22;20437;-74
2022/12/11 09:43:07;;;;;;;16.53;10.50;;;;;;;;;;6307290;22;20413;-74
2022/12/11 09:45:55;;;;;;;14.93;10.03;;;;;;;;;;6309619;22;20420;-74
2022/12/11 09:48:45;;;;;;;16.17;10.37;;;;;;;;;;6310192;22;20468;-74
2022/12/11 09:51:37;;;;;;;18.07;11.57;;;;;;;;;;6309689;22;20411;-74
2022/12/11 09:54:27;;;;;;;14.77;10.23;;;;;;;;;;6310469;22;20425;-74
2022/12/11 09:57:21;;;;;;;15.90;10.33;;;;;;;;;;6311579;22;20430;-74
2022/12/11 10:00:15;;;;;;;19.47;11.30;;;;;;;;;;6312025;22;20922;-74
2022/12/11 10:03:22;;;;;;;14.73;9.23;;;;;;;;;;6311058;22;20412;-74
2022/12/11 10:06:16;;;;;;;15.00;10.50;;;;;;;;;;6309460;22;20405;-75
2022/12/11 10:09:10;;;;;;;15.63;10.50;;;;;;;;;;6323267;22;20450;-74
2022/12/11 10:12:07;;;;;;;14.90;10.50;;;;;;;;;;6314087;22;20472;-73
2022/12/11 10:15:05;;;;;;;17.57;11.00;;;;;;;;;;6316682;22;20415;-74
2022/12/11 10:17:56;;;;;;;17.43;10.90;;;;;;;;;;6313449;22;20441;-74
2022/12/11 10:20:53;;;;;;;18.57;11.07;;;;;;;;;;6312518;22;20406;-74
2022/12/11 10:23:44;;;;;;;14.77;10.57;;;;;;;;;;6310542;22;20414;-75
2022/12/11 10:26:33;;;;;;;17.50;11.20;;;;;;;;;;6315406;22;20403;-74
2022/12/11 10:29:23;;;;;;;16.83;11.70;;;;;;;;;;6315146;22;20446;-74
2022/12/11 10:32:16;;;;;;;16.40;10.37;;;;;;;;;;6312647;22;20439;-74
2022/12/11 10:35:06;;;;;;;14.40;9.77;;;;;;;;;;6316801;22;20434;-74
2022/12/11 10:37:57;;;;;;;14.80;10.23;;;;;;;;;;6313576;22;20445;-73
2022/12/11 10:40:47;;;;;;;18.60;12.50;;;;;;;;;;6314417;22;20921;-74
2022/12/11 10:43:36;;;;;;;13.77;9.40;;;;;;;;;;6315229;22;20415;-74
2022/12/11 10:46:31;;;;;;;16.23;10.73;;;;;;;;;;6319584;22;20408;-75
2022/12/11 10:49:24;;;;;;;17.17;11.63;;;;;;;;;;6311806;22;20458;-74
2022/12/11 10:52:13;;;;;;;14.13;11.10;;;;;;;;;;6313089;22;20446;-72
2022/12/11 10:55:03;;;;;;;17.10;10.87;;;;;;;;;;6316302;22;20416;-74
2022/12/11 10:57:56;;;;;;;16.10;10.60;;;;;;;;;;6307933;22;20895;-73
2022/12/11 11:00:44;;;;;;;14.37;10.20;;;;;;;;;;6315259;22;20470;-74
2022/12/11 11:03:35;;;;;;;14.57;10.37;;;;;;;;;;6312526;22;20414;-74
2022/12/11 11:06:25;;;;;;;15.60;10.47;;;;;;;;;;6316754;22;20413;-75
2022/12/11 11:09:28;;;;;;;15.10;10.67;;;;;;;;;;6317169;22;20430;-74
2022/12/11 11:12:22;;;;;;;14.20;11.10;;;;;;;;;;6315236;22;20422;-74
2022/12/11 11:15:12;;;;;;;14.97;10.60;;;;;;;;;;6314953;22;20900;-74
2022/12/11 11:18:03;;;;;;;13.63;10.07;;;;;;;;;;6312983;22;20435;-73
2022/12/11 11:20:54;;;;;;;14.77;10.07;;;;;;;;;;6316483;22;20729;-75
2022/12/11 11:23:43;;;;;;;14.90;10.30;;;;;;;;;;6317086;22;20413;-75
2022/12/11 11:26:38;;;;;;;16.20;10.17;;;;;;;;;;6313789;22;20414;-75
2022/12/11 11:29:46;;;;;;;15.57;10.97;;;;;;;;;;6315854;22;20431;-74
2022/12/11 11:32:41;;;;;;;13.60;9.50;;;;;;;;;;6316723;22;20433;-74
2022/12/11 11:35:31;;;;;;;13.50;10.20;;;;;;;;;;6318501;22;20419;-74
2022/12/11 11:38:22;;;;;;;15.00;10.07;;;;;;;;;;6315709;22;20454;-74
2022/12/11 11:41:16;;;;;;;14.80;9.83;;;;;;;;;;6329232;22;20410;-73
2022/12/11 11:44:06;;;;;;;15.97;9.83;;;;;;;;;;6318649;22;20412;-74
2022/12/11 11:46:57;;;;;;;15.10;10.40;;;;;;;;;;6317871;22;20420;-74
2022/12/11 11:49:51;;;;;;;13.60;9.87;;;;;;;;;;6314678;22;20440;-74
2022/12/11 11:52:43;;;;;;;14.40;9.87;;;;;;;;;;6325717;22;20444;-74
2022/12/11 11:55:38;;;;;;;14.60;10.10;;;;;;;;;;6321534;22;20398;-74
2022/12/11 11:58:28;;;;;;;14.33;10.90;;;;;;;;;;6325559;22;20509;-75
2022/12/11 12:01:18;;;;;;;14.80;10.90;;;;;;;;;;6317163;22;20510;-74
2022/12/11 12:04:07;;;;;;;15.37;10.10;;;;;;;;;;6312969;22;20878;-74
2022/12/11 12:07:14;;;;;;;15.70;11.07;;;;;;;;;;6315685;22;20477;-75
2022/12/11 12:10:08;;;;;;;16.23;11.00;;;;;;;;;;6316014;22;20413;-73
2022/12/11 12:13:02;;;;;;;14.90;10.90;;;;;;;;;;6314101;22;20946;-73
2022/12/11 12:15:55;;;;;;;15.47;9.93;;;;;;;;;;6315600;22;20414;-73
2022/12/11 12:18:50;;;;;;;14.57;10.20;;;;;;;;;;6327146;22;20439;-74
2022/12/11 12:21:41;;;;;;;14.43;10.17;;;;;;;;;;6311917;22;20430;-73
2022/12/11 12:24:34;;;;;;;14.47;9.80;;;;;;;;;;6313455;22;20897;-75
2022/12/11 12:27:29;;;;;;;14.33;9.73;;;;;;;;;;6316276;22;20423;-73
2022/12/11 12:30:43;;;;;;;15.97;10.93;;;;;;;;;;6315982;22;20411;-74
2022/12/11 12:33:37;;;;;;;14.33;9.37;;;;;;;;;;6320091;22;20440;-74
2022/12/11 12:36:28;;;;;;;14.37;9.33;;;;;;;;;;6317447;22;20410;-74
2022/12/11 12:39:23;;;;;;;15.47;11.20;;;;;;;;;;6316214;22;20524;-74
2022/12/11 12:42:14;;;;;;;15.27;9.73;;;;;;;;;;6316929;22;20404;-74
2022/12/11 12:45:08;;;;;;;13.23;10.43;;;;;;;;;;6327550;22;20426;-74
2022/12/11 12:47:58;;;;;;;13.13;9.90;;;;;;;;;;6317797;22;20439;-74
2022/12/11 12:50:49;;;;;;;14.57;9.97;;;;;;;;;;6317625;22;20417;-74
2022/12/11 12:53:38;;;;;;;14.03;10.27;;;;;;;;;;6316943;22;20440;-74
2022/12/11 12:56:27;;;;;;;13.57;9.00;;;;;;;;;;6313709;22;20404;-74
2022/12/11 12:59:20;;;;;;;13.03;9.90;;;;;;;;;;6313065;22;20455;-73
2022/12/11 13:02:14;;;;;;;14.83;10.63;;;;;;;;;;6312812;22;20480;-74
2022/12/11 13:05:07;;;;;;;16.23;10.97;;;;;;;;;;6315324;22;20404;-74
2022/12/11 13:07:56;;;;;;;14.47;10.83;;;;;;;;;;6315016;22;20443;-74
2022/12/11 13:10:45;;;;;;;15.83;9.87;;;;;;;;;;6310605;22;20412;-74
2022/12/11 13:13:35;;;;;;;15.17;11.30;;;;;;;;;;6310583;22;20432;-75
2022/12/11 13:16:25;;;;;;;15.00;10.60;;;;;;;;;;6316856;22;20478;-75
2022/12/11 13:19:18;;;;;;;13.70;10.63;;;;;;;;;;6312595;22;20443;-74
2022/12/11 13:22:22;;;;;;;14.93;11.20;;;;;;;;;;6307981;22;20923;-74
2022/12/11 13:25:23;;;;;;;15.60;10.83;;;;;;;;;;6325337;22;20639;-74
2022/12/11 13:28:21;;;;;;;17.60;11.60;;;;;;;;;;6313290;22;20432;-74
2022/12/11 13:31:37;;;;;;;15.37;12.50;;;;;;;;;;6318048;22;20424;-74
2022/12/11 13:34:28;;;;;;;15.57;10.33;;;;;;;;;;6289915;22;20452;-75
2022/12/11 13:37:25;;;;;;;18.80;12.13;;;;;;;;;;6314254;22;20401;-74
2022/12/11 13:40:17;;;;;;;15.40;11.37;;;;;;;;;;6309719;22;20426;-74
2022/12/11 13:43:07;;;;;;;13.50;10.00;;;;;;;;;;6305510;22;20416;-74
2022/12/11 13:45:58;;;;;;;15.43;10.53;;;;;;;;;;6308841;22;20420;-75
2022/12/11 13:48:48;;;;;;;12.53;10.07;;;;;;;;;;6307738;22;20440;-75
2022/12/11 13:51:36;;;;;;;14.83;10.27;;;;;;;;;;6314752;22;20412;-74
2022/12/11 13:54:27;;;;;;;14.07;10.17;;;;;;;;;;6313878;22;20440;-75
2022/12/11 13:57:19;;;;;;;13.57;10.80;;;;;;;;;;6306775;22;20418;-74
2022/12/11 14:00:20;;;;;;;19.60;12.63;;;;;;;;;;6315610;22;20409;-75
2022/12/11 14:03:08;;;;;;;16.07;11.17;;;;;;;;;;6304941;22;20448;-73
2022/12/11 14:05:57;;;;;;;14.83;11.00;;;;;;;;;;6302591;22;20423;-77
2022/12/11 14:08:46;;;;;;;16.40;10.93;;;;;;;;;;6304854;22;20440;-77
2022/12/11 14:11:36;;;;;;;17.53;11.10;;;;;;;;;;6299701;22;20414;-73
2022/12/11 14:14:28;;;;;;;15.63;11.23;;;;;;;;;;6296767;22;20444;-76
2022/12/11 14:17:18;;;;;;;14.80;10.80;;;;;;;;;;6300244;22;20427;-75
2022/12/11 14:20:07;;;;;;;14.57;10.77;;;;;;;;;;6311325;22;20439;-78
2022/12/11 14:23:04;;;;;;;14.77;10.30;;;;;;;;;;6300947;22;20424;-75
2022/12/11 14:25:54;;;;;;;15.10;11.40;;;;;;;;;;6313085;22;20753;-72
2022/12/11 14:28:44;;;;;;;13.47;10.13;;;;;;;;;;6316909;22;20419;-75
2022/12/11 14:31:35;;;;;;;14.03;9.83;;;;;;;;;;6304695;22;20412;-75
2022/12/11 14:34:25;;;;;;;13.80;10.43;;;;;;;;;;6311104;22;20443;-76
2022/12/11 14:37:15;;;;;;;14.87;10.57;;;;;;;;;;6304751;22;20407;-75
2022/12/11 14:40:09;;;;;;;15.17;10.47;;;;;;;;;;6302906;22;20414;-76
2022/12/11 14:43:00;;;;;;;15.90;10.80;;;;;;;;;;6303742;22;20942;-76
2022/12/11 14:45:50;;;;;;;15.23;11.20;;;;;;;;;;6301900;22;20411;-75
2022/12/11 14:48:44;;;;;;;14.97;10.27;;;;;;;;;;6310967;22;20406;-77
2022/12/11 14:51:36;;;;;;;15.20;10.77;;;;;;;;;;6302164;22;21019;-74
2022/12/11 14:54:30;;;;;;;14.57;10.53;;;;;;;;;;6300536;22;20473;-76
2022/12/11 14:57:22;;;;;;;15.73;11.50;;;;;;;;;;6304867;22;20416;-76
2022/12/11 15:00:21;;;;;;;14.37;10.93;;;;;;;;;;6304167;22;20412;-74
2022/12/11 15:03:22;;;;;;;17.40;12.00;;;;;;;;;;6312569;22;20441;-76
2022/12/11 15:06:26;;;;;;;15.30;11.37;;;;;;;;;;6302633;22;20809;-76
2022/12/11 15:09:18;;;;;;;17.37;11.03;;;;;;;;;;6314723;22;20403;-76
2022/12/11 15:12:12;;;;;;;19.13;11.57;;;;;;;;;;6305379;22;20420;-77
2022/12/11 15:15:01;;;;;;;20.10;12.80;;;;;;;;;;6304491;22;20443;-77
2022/12/11 15:17:53;;;;;;;22.20;13.63;;;;;;;;;;6307283;22;20452;-76
2022/12/11 15:20:52;;;;;;;21.23;14.53;;;;;;;;;;6303495;22;20427;-76
2022/12/11 15:23:56;;;;;;;23.20;15.40;;;;;;;;;;6306486;22;20438;-75
2022/12/11 15:26:46;;;;;;;19.33;14.03;;;;;;;;;;6322422;22;20424;-74
2022/12/11 15:29:36;;;;;;;19.83;14.03;;;;;;;;;;6245151;22;20532;-77
2022/12/11 15:32:24;;;;;;;18.20;13.80;;;;;;;;;;6227237;22;20455;-78
2022/12/11 15:35:23;;;;;;;19.47;14.47;;;;;;;;;;6243702;23;20742;-75
2022/12/11 15:38:28;;;;;;;21.13;14.30;;;;;;;;;;6237627;23;20498;-74
2022/12/11 15:41:22;;;;;;;18.77;13.30;;;;;;;;;;6241860;22;20418;-77
2022/12/11 15:44:17;;;;;;;19.23;13.80;;;;;;;;;;6242069;23;20433;-76
2022/12/11 15:47:12;;;;;;;19.87;12.90;;;;;;;;;;6235238;23;20426;-76
2022/12/11 15:50:04;;;;;;;18.40;13.60;;;;;;;;;;6252365;23;20749;-75
2022/12/11 15:52:57;;;;;;;20.57;14.50;;;;;;;;;;6243076;22;20446;-77
2022/12/11 15:55:47;;;;;;;20.70;15.00;;;;;;;;;;6242670;23;20448;-76
2022/12/11 15:58:36;;;;;;;19.40;14.00;;;;;;;;;;6241684;23;20417;-76
2022/12/11 16:01:24;;;;;;;22.77;15.50;;;;;;;;;;6239324;22;20454;-76
2022/12/11 16:04:13;;;;;;;23.33;15.20;;;;;;;;;;6252036;23;20434;-75
2022/12/11 16:07:07;;;;;;;20.17;14.37;;;;;;;;;;6241114;23;20414;-75
2022/12/11 16:09:56;;;;;;;19.17;14.17;;;;;;;;;;6250975;23;20419;-78
2022/12/11 16:12:50;;;;;;;20.87;14.07;;;;;;;;;;6243912;22;20449;-75
2022/12/11 16:15:39;;;;;;;19.33;13.93;;;;;;;;;;6248136;23;20789;-75
2022/12/11 16:18:28;;;;;;;20.03;13.93;;;;;;;;;;6239348;23;20443;-77
2022/12/11 16:21:16;;;;;;;21.67;15.43;;;;;;;;;;6241131;22;20413;-76
2022/12/11 16:24:09;;;;;;;24.00;16.00;;;;;;;;;;6243482;22;20429;-76
2022/12/11 16:26:57;;;;;;;19.50;14.97;;;;;;;;;;6245074;23;20415;-76
2022/12/11 16:29:47;;;;;;;19.70;13.87;;;;;;;;;;6242094;23;20414;-75
2022/12/11 16:32:36;;;;;;;21.70;15.30;;;;;;;;;;6240319;22;20445;-75
2022/12/11 16:35:27;;;;;;;22.50;14.70;;;;;;;;;;6240869;23;20443;-74
2022/12/11 16:38:16;;;;;;;20.67;14.30;;;;;;;;;;6244131;23;20413;-76
2022/12/11 16:41:06;;;;;;;21.53;14.43;;;;;;;;;;6259260;22;20493;-78
2022/12/11 16:43:54;;;;;;;22.63;14.63;;;;;;;;;;6237129;23;20432;-78
2022/12/11 16:46:44;;;;;;;23.00;15.60;;;;;;;;;;6240720;23;20498;-76
2022/12/11 16:49:34;;;;;;;23.17;16.23;;;;;;;;;;6242803;23;20943;-76
2022/12/11 16:52:23;;;;;;;20.20;14.80;;;;;;;;;;6245687;22;20448;-77
2022/12/11 16:55:13;;;;;;;23.07;15.30;;;;;;;;;;6242562;23;20432;-75